Terminal Aerodrome Forecast
Issued by NWS Houston/Galveston TX

Home | Current Version | Previous Version | Text Only | Print | Product List | Glossary On
Versions: 1 2 3 4 5 6 7 8 9 10 11 12 13 14 15 16 17 18 19 20 21 22 23 24 25 26 27 28 29 30 31 32 33 34 35 36 37
000
FTUS44 KHGX 060637 AAB
TAFHOU
TAF AMD
KHOU 060637Z 0607/0706 24006KT P6SM BKN009 BKN035
     FM061000 24004KT 6SM BR BKN004
     FM061500 25006KT P6SM SCT250
     FM070500 32005KT P6SM SCT007 SCT015=

USA.gov is the U.S. government's official web portal to all federal, state and local government web resources and services.